createdAt,value
2022-08-07T04:00:35.612Z,14.63
2022-08-07T04:05:40.391Z,14.71
2022-08-07T04:10:35.460Z,14.70
2022-08-07T04:15:34.981Z,14.70
2022-08-07T04:20:35.106Z,14.67
2022-08-07T04:25:39.016Z,14.69
2022-08-07T04:30:39.451Z,14.70
2022-08-07T04:35:35.738Z,14.79
2022-08-07T04:40:34.133Z,15.08
2022-08-07T04:45:52.119Z,15.28
2022-08-07T04:50:35.022Z,16.23
2022-08-07T04:58:10.042Z,16.15
2022-08-07T05:00:35.233Z,16.13
2022-08-07T05:05:52.816Z,16.16
2022-08-07T05:10:35.043Z,16.28
2022-08-07T05:15:33.749Z,16.46
2022-08-07T05:20:33.698Z,17.25
2022-08-07T05:25:36.623Z,18.18
2022-08-07T05:30:34.602Z,18.90
2022-08-07T05:35:42.137Z,22.78
2022-08-07T05:40:33.583Z,24.49
2022-08-07T05:45:47.455Z,25.52
2022-08-07T05:50:34.373Z,26.19
2022-08-07T05:56:03.566Z,26.29
2022-08-07T06:00:34.260Z,26.63
2022-08-07T06:05:33.211Z,27.18
2022-08-07T06:10:33.263Z,27.46
2022-08-07T06:15:38.507Z,27.84
2022-08-07T06:20:50.835Z,27.61
2022-08-07T06:25:34.896Z,27.69
2022-08-07T06:30:37.553Z,26.43
2022-08-07T06:35:45.628Z,28.56
2022-08-07T06:40:35.192Z,29.42
2022-08-07T06:45:32.788Z,29.05
2022-08-07T06:50:32.734Z,28.86
2022-08-07T06:56:00.489Z,27.97
2022-08-07T07:00:33.631Z,28.30
2022-08-07T07:06:04.707Z,28.66
2022-08-07T07:10:33.526Z,29.38
2022-08-07T07:15:35.901Z,29.83
2022-08-07T07:20:32.417Z,30.10
2022-08-07T07:26:34.278Z,30.70
2022-08-07T07:30:38.721Z,29.45
2022-08-07T07:35:33.536Z,30.08
2022-08-07T07:40:32.198Z,30.57
2022-08-07T07:46:39.984Z,30.44
2022-08-07T07:50:39.008Z,30.13
2022-08-07T07:55:37.563Z,30.69
2022-08-07T08:00:34.159Z,29.65
2022-08-07T08:05:42.910Z,29.44
2022-08-07T08:10:38.227Z,29.61
2022-08-07T08:15:57.931Z,29.85
2022-08-07T08:20:32.852Z,29.33
2022-08-07T08:25:42.765Z,28.90
2022-08-07T08:30:34.395Z,29.18
2022-08-07T08:35:39.533Z,29.46
2022-08-07T08:40:32.652Z,28.94
2022-08-07T08:45:41.867Z,28.75
2022-08-07T08:50:39.070Z,29.22
2022-08-07T08:55:54.648Z,29.28
2022-08-07T09:00:32.365Z,28.81
2022-08-07T09:05:36.745Z,29.02
2022-08-07T09:10:32.248Z,29.67
2022-08-07T09:16:24.319Z,29.93
2022-08-07T09:20:35.272Z,30.81
2022-08-07T09:25:31.086Z,30.13
2022-08-07T09:30:31.048Z,30.01
2022-08-07T09:36:04.387Z,28.97
2022-08-07T09:40:32.045Z,29.38
2022-08-07T09:47:26.191Z,29.95
2022-08-07T09:50:31.836Z,29.90
2022-08-07T09:56:02.472Z,28.94
2022-08-07T10:00:31.993Z,28.33
2022-08-07T10:05:59.566Z,28.78
2022-08-07T10:10:48.291Z,28.56
2022-08-07T10:15:37.888Z,28.66
2022-08-07T10:20:31.779Z,28.29
2022-08-07T10:25:32.881Z,27.80
2022-08-07T10:30:31.422Z,27.60
2022-08-07T10:35:55.614Z,27.22
2022-08-07T10:40:31.341Z,27.13
2022-08-07T10:45:57.185Z,27.23
2022-08-07T10:50:31.199Z,27.49
2022-08-07T10:55:38.138Z,27.48
2022-08-07T11:00:39.453Z,27.57
2022-08-07T11:05:35.931Z,27.14
2022-08-07T11:10:30.993Z,26.60
2022-08-07T11:15:31.937Z,27.18
2022-08-07T11:20:29.877Z,27.53
2022-08-07T11:25:29.823Z,27.40
2022-08-07T11:30:41.775Z,27.76
2022-08-07T11:35:30.700Z,28.02
2022-08-07T11:40:29.737Z,28.00
2022-08-07T11:45:35.986Z,27.86
2022-08-07T11:50:33.236Z,28.03
2022-08-07T11:56:12.012Z,27.90
2022-08-07T12:00:30.451Z,27.92
2022-08-07T12:05:41.730Z,28.00
2022-08-07T12:10:30.410Z,27.58
2022-08-07T12:15:35.631Z,27.52
2022-08-07T12:20:32.470Z,27.38
2022-08-07T12:26:03.215Z,27.40
2022-08-07T12:30:30.137Z,28.16
2022-08-07T12:35:29.304Z,27.93
2022-08-07T12:40:47.348Z,27.69
2022-08-07T12:45:29.980Z,27.84
2022-08-07T12:50:38.161Z,27.72
2022-08-07T12:55:41.139Z,27.20
2022-08-07T13:00:32.569Z,27.56
2022-08-07T13:06:03.676Z,27.66
2022-08-07T13:10:37.861Z,27.72
2022-08-07T13:15:29.404Z,27.78
2022-08-07T13:20:29.095Z,27.79
2022-08-07T13:25:29.629Z,27.61
2022-08-07T13:30:40.386Z,27.96
2022-08-07T13:35:59.907Z,28.30
2022-08-07T13:40:35.712Z,27.78
2022-08-07T13:46:11.254Z,28.07
2022-08-07T13:50:33.290Z,27.72
2022-08-07T13:55:28.207Z,27.94
2022-08-07T14:00:29.168Z,27.99
2022-08-07T14:05:28.942Z,27.79
2022-08-07T14:10:31.521Z,28.28
2022-08-07T14:15:28.009Z,28.38
2022-08-07T14:20:39.814Z,28.05
2022-08-07T14:25:29.392Z,28.02
2022-08-07T14:30:33.146Z,27.76
2022-08-07T14:35:45.349Z,27.41
2022-08-07T14:40:32.254Z,27.94
2022-08-07T14:45:28.859Z,27.96
2022-08-07T14:50:28.831Z,28.05
2022-08-07T14:55:27.572Z,28.02
2022-08-07T15:05:30.183Z,27.82
2022-08-07T15:10:30.156Z,27.93
2022-08-07T15:15:27.368Z,27.98
2022-08-07T15:20:34.138Z,27.43
2022-08-07T15:25:36.952Z,27.51
2022-08-07T15:30:28.210Z,27.96
2022-08-07T15:40:34.442Z,27.97
2022-08-07T15:45:56.340Z,27.80
2022-08-07T15:51:01.179Z,27.71
2022-08-07T15:56:01.975Z,27.33
2022-08-07T16:00:33.816Z,27.59
2022-08-07T16:05:31.190Z,27.63
2022-08-07T16:10:26.786Z,27.82
2022-08-07T16:15:56.339Z,27.32
2022-08-07T16:20:33.881Z,27.53
2022-08-07T16:25:54.692Z,27.58
2022-08-07T16:30:32.022Z,27.29
2022-08-07T16:35:59.394Z,27.24
2022-08-07T16:40:28.628Z,27.00
2022-08-07T16:46:21.133Z,26.73
2022-08-07T16:50:38.939Z,26.90
2022-08-07T16:55:27.299Z,26.58
2022-08-07T17:00:30.101Z,26.79
2022-08-07T17:06:19.636Z,26.82
2022-08-07T17:10:32.206Z,26.38
2022-08-07T17:15:43.575Z,26.19
2022-08-07T17:20:30.089Z,26.24
2022-08-07T17:25:47.343Z,26.00
2022-08-07T17:30:27.317Z,25.92
2022-08-07T17:35:51.058Z,25.89
2022-08-07T17:40:30.564Z,25.55
2022-08-07T17:45:25.764Z,25.52
2022-08-07T17:50:30.484Z,25.42
2022-08-07T17:55:55.795Z,25.38
2022-08-07T18:00:27.555Z,25.41
2022-08-07T18:05:26.551Z,25.38
2022-08-07T18:10:32.552Z,25.16
2022-08-07T18:15:32.600Z,25.09
2022-08-07T18:21:06.521Z,24.83
2022-08-07T18:25:40.723Z,24.77
2022-08-07T18:30:31.296Z,24.63
2022-08-07T18:35:26.226Z,24.57
2022-08-07T18:40:43.998Z,24.48
2022-08-07T18:45:40.101Z,24.39
2022-08-07T18:50:39.523Z,24.27
2022-08-07T18:55:40.135Z,24.10
2022-08-07T19:00:33.046Z,24.00
2022-08-07T19:05:25.038Z,23.85
2022-08-07T19:10:31.322Z,23.70
2022-08-07T19:16:02.656Z,23.32
2022-08-07T19:20:30.003Z,23.19
2022-08-07T19:26:23.074Z,22.92
2022-08-07T19:31:00.137Z,22.73
2022-08-07T19:35:25.563Z,22.74
2022-08-07T19:40:31.135Z,22.63
2022-08-07T19:45:53.076Z,22.69
2022-08-07T19:50:43.962Z,22.54
2022-08-07T19:55:25.360Z,22.64
2022-08-07T20:00:28.353Z,22.52
2022-08-07T20:05:24.260Z,22.50
2022-08-07T20:10:36.867Z,22.37
2022-08-07T20:15:32.791Z,22.24
2022-08-07T20:20:26.399Z,22.20
2022-08-07T20:25:24.021Z,22.28
2022-08-07T20:30:23.976Z,22.09
2022-08-07T20:35:27.143Z,22.12
2022-08-07T20:40:32.298Z,22.03
2022-08-07T20:45:33.298Z,21.84
2022-08-07T20:50:24.754Z,21.82
2022-08-07T20:55:24.439Z,21.68
2022-08-07T21:00:23.639Z,21.50
2022-08-07T21:05:42.732Z,21.36
2022-08-07T21:10:25.134Z,21.40
2022-08-07T21:15:58.541Z,21.31
2022-08-07T21:20:26.694Z,21.26
2022-08-07T21:25:24.397Z,21.13
2022-08-07T21:30:23.683Z,21.25
2022-08-07T21:35:34.657Z,21.12
2022-08-07T21:40:24.245Z,21.09
2022-08-07T21:46:03.230Z,21.13
2022-08-07T21:50:24.089Z,21.08
2022-08-07T21:55:28.314Z,20.88
2022-08-07T22:00:25.112Z,21.00
2022-08-07T22:05:45.877Z,20.89
2022-08-07T22:10:24.716Z,20.84
2022-08-07T22:16:39.458Z,20.91
2022-08-07T22:20:24.019Z,20.85
2022-08-07T22:25:26.589Z,20.75
2022-08-07T22:30:26.574Z,20.76
2022-08-07T22:35:23.171Z,20.70
2022-08-07T22:40:22.536Z,20.67
2022-08-07T22:46:21.971Z,20.58
2022-08-07T22:50:29.025Z,20.57
2022-08-07T22:55:23.279Z,20.57
2022-08-07T23:00:28.602Z,20.42
2022-08-07T23:06:08.270Z,20.48
2022-08-07T23:10:38.183Z,20.30
2022-08-07T23:16:06.758Z,20.28
2022-08-07T23:20:51.258Z,20.22
2022-08-07T23:25:23.043Z,20.12
